createdAt,value
2022-11-02T00:03:03.482Z,9.44
2022-11-02T00:08:07.487Z,9.33
2022-11-02T00:13:17.391Z,9.10
2022-11-02T00:18:20.880Z,8.86
2022-11-02T00:23:25.015Z,8.67
2022-11-02T00:28:30.837Z,8.47
2022-11-02T00:33:34.134Z,8.33
2022-11-02T00:38:37.585Z,8.28
2022-11-02T00:43:40.933Z,8.27
2022-11-02T00:48:44.625Z,8.29
2022-11-02T00:53:48.425Z,8.41
2022-11-02T00:58:51.910Z,8.44
2022-11-02T01:03:57.512Z,8.38
2022-11-02T01:09:00.979Z,8.23
2022-11-02T01:14:04.669Z,8.02
2022-11-02T01:19:08.771Z,7.91
2022-11-02T01:24:12.249Z,7.76
2022-11-02T01:29:15.721Z,7.65
2022-11-02T01:34:19.240Z,7.69
2022-11-02T01:39:22.644Z,7.75
2022-11-02T01:44:41.367Z,7.76
2022-11-02T01:49:50.173Z,7.80
2022-11-02T01:55:00.999Z,7.72
2022-11-02T02:00:10.728Z,7.49
2022-11-02T02:05:18.164Z,7.39
2022-11-02T02:10:21.737Z,7.44
2022-11-02T02:15:31.254Z,7.55
2022-11-02T02:21:06.281Z,7.60
2022-11-02T02:26:28.531Z,7.54
2022-11-02T02:31:50.180Z,7.44
2022-11-02T02:36:59.112Z,7.42
2022-11-02T02:42:29.111Z,7.44
2022-11-02T02:47:33.870Z,7.42
2022-11-02T02:52:38.294Z,7.42
2022-11-02T02:57:41.746Z,7.44
2022-11-02T03:03:01.472Z,7.50
2022-11-02T03:08:09.256Z,7.54
2022-11-02T03:13:42.859Z,7.59
2022-11-02T03:18:53.328Z,7.69
2022-11-02T03:24:30.572Z,7.71
2022-11-02T03:29:37.561Z,7.73
2022-11-02T03:34:47.295Z,7.79
2022-11-02T03:40:16.970Z,7.79
2022-11-02T03:45:23.785Z,7.74
2022-11-02T03:50:31.997Z,7.66
2022-11-02T03:55:42.457Z,7.51
2022-11-02T04:01:07.949Z,7.36
2022-11-02T04:06:13.784Z,7.24
2022-11-02T04:11:42.487Z,7.08
2022-11-02T04:17:17.261Z,6.87
2022-11-02T04:22:45.456Z,6.74
2022-11-02T04:27:52.409Z,6.67
2022-11-02T04:33:17.841Z,6.57
2022-11-02T04:38:41.254Z,6.45
2022-11-02T04:43:49.413Z,6.41
2022-11-02T04:48:53.818Z,6.33
2022-11-02T04:54:00.557Z,6.21
2022-11-02T04:59:06.439Z,6.11
2022-11-02T05:04:12.005Z,6.02
2022-11-02T05:09:16.178Z,5.93
2022-11-02T05:14:21.630Z,5.86
2022-11-02T05:19:25.323Z,5.82
2022-11-02T05:24:29.062Z,5.82
2022-11-02T05:29:32.880Z,5.89
2022-11-02T05:34:36.729Z,5.84
2022-11-02T05:39:44.034Z,5.70
2022-11-02T05:44:50.018Z,5.59
2022-11-02T05:49:53.690Z,5.54
2022-11-02T05:54:57.031Z,5.50
2022-11-02T06:00:00.289Z,5.45
2022-11-02T06:05:04.086Z,5.42
2022-11-02T06:10:08.521Z,5.43
2022-11-02T06:15:12.489Z,5.45
2022-11-02T06:25:42.252Z,5.73
2022-11-02T06:30:52.997Z,5.86
2022-11-02T06:35:57.128Z,6.04
2022-11-02T06:41:07.096Z,6.26
2022-11-02T06:46:13.479Z,6.46
2022-11-02T06:51:16.950Z,6.57
2022-11-02T06:56:21.018Z,6.69
2022-11-02T07:01:24.562Z,6.82
2022-11-02T07:06:28.080Z,6.99
2022-11-02T07:11:31.508Z,7.26
2022-11-02T07:16:34.979Z,7.57
2022-11-02T07:21:41.349Z,7.89
2022-11-02T07:26:53.731Z,8.18
2022-11-02T07:31:57.721Z,8.45
2022-11-02T07:37:01.625Z,8.71
2022-11-02T07:42:07.616Z,8.93
2022-11-02T07:47:11.560Z,9.12
2022-11-02T07:52:15.541Z,9.34
2022-11-02T07:57:25.934Z,9.59
2022-11-02T08:02:29.761Z,9.83
2022-11-02T08:07:33.528Z,10.06
2022-11-02T08:12:38.008Z,10.27
2022-11-02T08:17:44.668Z,10.49
2022-11-02T08:22:51.146Z,10.73
2022-11-02T08:28:00.735Z,10.97
2022-11-02T08:33:11.795Z,11.23
2022-11-02T08:38:19.091Z,11.45
2022-11-02T08:43:24.983Z,11.64
2022-11-02T08:48:29.634Z,11.87
2022-11-02T08:53:33.919Z,12.13
2022-11-02T08:58:38.796Z,12.39
2022-11-02T09:03:46.358Z,12.64
2022-11-02T09:09:03.343Z,12.97
2022-11-02T09:14:21.273Z,13.21
2022-11-02T09:19:51.049Z,13.44
2022-11-02T09:24:55.221Z,13.64
2022-11-02T09:30:10.161Z,13.81
2022-11-02T09:35:17.144Z,13.99
2022-11-02T09:40:39.201Z,14.21
2022-11-02T09:46:00.233Z,14.37
2022-11-02T09:51:48.865Z,14.49
2022-11-02T09:57:02.680Z,14.64
2022-11-02T10:02:19.805Z,14.82
2022-11-02T10:07:30.911Z,14.98
2022-11-02T10:12:43.527Z,15.06
2022-11-02T10:18:08.482Z,15.16
2022-11-02T10:23:43.870Z,15.23
2022-11-02T10:28:49.355Z,15.31
2022-11-02T10:33:58.398Z,15.40
2022-11-02T10:39:13.259Z,15.47
2022-11-02T10:44:42.218Z,15.56
2022-11-02T10:50:14.554Z,15.65
2022-11-02T10:55:26.317Z,15.72
2022-11-02T11:00:33.282Z,15.80
2022-11-02T11:05:56.863Z,15.76
2022-11-02T11:11:38.490Z,15.80
2022-11-02T11:16:44.783Z,15.84
2022-11-02T11:21:50.570Z,15.90
2022-11-02T11:27:04.857Z,16.02
2022-11-02T11:32:18.274Z,16.16
2022-11-02T11:37:21.997Z,16.21
2022-11-02T11:42:28.732Z,16.24
2022-11-02T11:47:38.558Z,16.27
2022-11-02T11:52:46.828Z,16.30
2022-11-02T11:58:15.193Z,16.32
2022-11-02T12:03:18.895Z,16.40
2022-11-02T12:08:32.586Z,16.47
2022-11-02T12:13:39.195Z,16.49
2022-11-02T12:19:02.373Z,16.52
2022-11-02T12:24:27.806Z,16.56
2022-11-02T12:29:59.268Z,16.63
2022-11-02T12:35:28.763Z,16.71
2022-11-02T12:40:49.608Z,16.81
2022-11-02T12:46:16.112Z,16.81
2022-11-02T12:51:22.609Z,16.74
2022-11-02T12:56:44.765Z,16.71
2022-11-02T13:01:53.102Z,16.69
2022-11-02T13:07:02.298Z,16.63
2022-11-02T13:12:21.174Z,16.59
2022-11-02T13:17:41.462Z,16.57
2022-11-02T13:22:48.242Z,16.46
2022-11-02T13:28:20.162Z,16.29
2022-11-02T13:33:35.030Z,16.10
2022-11-02T13:38:49.728Z,15.91
2022-11-02T13:44:17.621Z,15.78
2022-11-02T13:49:30.398Z,15.75
2022-11-02T13:54:42.257Z,15.77
2022-11-02T13:59:53.705Z,15.79
2022-11-02T14:05:01.695Z,15.85
2022-11-02T14:10:12.256Z,15.90
2022-11-02T14:15:24.506Z,15.86
2022-11-02T14:20:35.784Z,15.78
2022-11-02T14:25:50.544Z,15.67
2022-11-02T14:31:05.782Z,15.54
2022-11-02T14:36:42.470Z,15.50
2022-11-02T14:42:04.638Z,15.54
2022-11-02T14:47:13.743Z,15.56
2022-11-02T14:52:29.774Z,15.49
2022-11-02T14:58:02.045Z,15.34
2022-11-02T15:03:31.653Z,15.05
2022-11-02T15:08:53.430Z,14.78
2022-11-02T15:14:54.079Z,14.47
2022-11-02T15:20:21.636Z,14.17
2022-11-02T15:25:41.207Z,13.92
2022-11-02T15:31:23.175Z,13.73
2022-11-02T15:36:57.728Z,13.45
2022-11-02T15:42:33.240Z,13.17
2022-11-02T15:47:57.075Z,12.91
2022-11-02T15:53:23.655Z,12.64
2022-11-02T15:59:17.394Z,12.41
2022-11-02T16:04:21.895Z,12.28
2022-11-02T16:09:40.979Z,12.20
2022-11-02T16:15:30.538Z,12.14
2022-11-02T16:20:48.633Z,12.11
2022-11-02T16:26:39.677Z,12.05
2022-11-02T16:32:00.734Z,11.97
2022-11-02T16:37:53.429Z,11.91
2022-11-02T16:43:32.251Z,11.77
2022-11-02T16:49:22.704Z,11.54
2022-11-02T16:54:45.533Z,11.26
2022-11-02T17:00:10.260Z,11.00
2022-11-02T17:05:44.505Z,10.79
2022-11-02T17:10:54.059Z,10.55
2022-11-02T17:16:11.800Z,10.35
2022-11-02T17:21:27.042Z,10.15
2022-11-02T17:26:42.093Z,9.93
2022-11-02T17:31:54.143Z,9.77
2022-11-02T17:37:03.822Z,9.65
2022-11-02T17:42:27.869Z,9.51
2022-11-02T17:47:31.417Z,9.41
2022-11-02T17:52:34.793Z,9.33
2022-11-02T17:57:38.717Z,9.26
2022-11-02T18:02:46.949Z,9.14
2022-11-02T18:07:51.084Z,9.07
2022-11-02T18:12:57.871Z,9.07
2022-11-02T18:18:15.457Z,9.15
2022-11-02T18:23:25.019Z,9.26
2022-11-02T18:28:28.613Z,9.33
2022-11-02T18:33:36.450Z,9.37
2022-11-02T18:38:45.530Z,9.38
2022-11-02T18:43:51.440Z,9.38
2022-11-02T18:49:07.248Z,9.35
2022-11-02T18:54:11.373Z,9.26
2022-11-02T18:59:20.204Z,9.14
2022-11-02T19:04:26.959Z,9.01
2022-11-02T19:09:42.052Z,8.85
2022-11-02T19:14:52.479Z,8.72
2022-11-02T19:20:00.549Z,8.62
2022-11-02T19:25:09.526Z,8.52
2022-11-02T19:30:31.414Z,8.45
2022-11-02T19:35:53.280Z,8.36
2022-11-02T19:41:36.954Z,8.28
2022-11-02T19:51:57.707Z,8.13
2022-11-02T19:57:33.231Z,8.04
2022-11-02T20:02:54.099Z,7.97
2022-11-02T20:08:13.943Z,7.96
2022-11-02T20:19:20.503Z,7.80
2022-11-02T20:24:34.975Z,7.72
2022-11-02T20:29:49.985Z,7.68
2022-11-02T20:41:21.918Z,7.54
2022-11-02T20:47:00.357Z,7.42
2022-11-02T20:52:28.158Z,7.31
2022-11-02T20:57:43.185Z,7.24
2022-11-02T21:02:59.770Z,7.15
2022-11-02T21:08:09.881Z,7.08
2022-11-02T21:13:38.735Z,6.99
2022-11-02T21:19:06.690Z,6.88
2022-11-02T21:24:17.839Z,6.79
2022-11-02T21:29:23.341Z,6.73
2022-11-02T21:34:39.623Z,6.66
2022-11-02T21:39:55.166Z,6.56
2022-11-02T21:44:58.774Z,6.45
2022-11-02T21:50:06.775Z,6.40
2022-11-02T21:55:11.370Z,6.39
2022-11-02T22:00:20.765Z,6.41
2022-11-02T22:05:51.214Z,6.41
2022-11-02T22:10:57.842Z,6.41
2022-11-02T22:16:35.255Z,6.44
2022-11-02T22:21:43.496Z,6.45
2022-11-02T22:26:47.651Z,6.51
2022-11-02T22:31:54.152Z,6.50
2022-11-02T22:37:19.813Z,6.39
2022-11-02T22:42:38.216Z,6.26
2022-11-02T22:47:50.541Z,6.10
2022-11-02T22:52:59.735Z,5.94
2022-11-02T22:58:03.270Z,5.86
2022-11-02T23:03:07.041Z,5.79
2022-11-02T23:08:11.413Z,5.72
2022-11-02T23:13:14.913Z,5.71
2022-11-02T23:18:18.713Z,5.77
2022-11-02T23:23:42.672Z,5.84
2022-11-02T23:29:04.833Z,5.80
2022-11-02T23:34:08.882Z,5.78
2022-11-02T23:39:31.554Z,5.77
2022-11-02T23:44:35.555Z,5.80
2022-11-02T23:49:42.417Z,5.74
2022-11-02T23:55:04.670Z,5.58
